sensor_id;sensor_type;location;lat;lon;timestamp;pressure;altitude;pressure_sealevel;temperature;humidity
71126;BME280;58785;55.566;38.058;2023-04-15T00:01:19;101447.47;;;1.68;37.71
71126;BME280;58785;55.566;38.058;2023-04-15T00:03:45;101447.47;;;1.68;37.86
71126;BME280;58785;55.566;38.058;2023-04-15T00:06:12;101451.88;;;1.67;37.64
71126;BME280;58785;55.566;38.058;2023-04-15T00:08:38;101462.56;;;1.63;37.85
71126;BME280;58785;55.566;38.058;2023-04-15T00:11:04;101461.72;;;1.62;37.90
71126;BME280;58785;55.566;38.058;2023-04-15T00:13:31;101464.56;;;1.56;38.17
71126;BME280;58785;55.566;38.058;2023-04-15T00:15:58;101469.00;;;1.54;37.92
71126;BME280;58785;55.566;38.058;2023-04-15T00:18:24;101480.50;;;1.52;38.03
71126;BME280;58785;55.566;38.058;2023-04-15T00:20:49;101458.13;;;1.40;37.84
71126;BME280;58785;55.566;38.058;2023-04-15T00:23:15;101477.03;;;1.51;38.22
71126;BME280;58785;55.566;38.058;2023-04-15T00:25:41;101480.59;;;1.49;38.09
71126;BME280;58785;55.566;38.058;2023-04-15T00:28:06;101481.78;;;1.40;38.07
71126;BME280;58785;55.566;38.058;2023-04-15T00:30:32;101486.19;;;1.39;38.39
71126;BME280;58785;55.566;38.058;2023-04-15T00:32:58;101487.97;;;1.39;38.44
71126;BME280;58785;55.566;38.058;2023-04-15T00:35:23;101484.81;;;1.29;38.54
71126;BME280;58785;55.566;38.058;2023-04-15T00:37:49;101490.88;;;1.31;38.52
71126;BME280;58785;55.566;38.058;2023-04-15T00:40:17;101500.63;;;1.28;38.46
71126;BME280;58785;55.566;38.058;2023-04-15T00:42:43;101494.56;;;1.26;38.44
71126;BME280;58785;55.566;38.058;2023-04-15T00:45:10;101497.41;;;1.20;38.66
71126;BME280;58785;55.566;38.058;2023-04-15T00:47:36;101506.13;;;1.22;38.64
71126;BME280;58785;55.566;38.058;2023-04-15T00:50:04;101495.94;;;1.12;38.34
71126;BME280;58785;55.566;38.058;2023-04-15T00:52:29;101507.16;;;1.16;38.66
71126;BME280;58785;55.566;38.058;2023-04-15T00:54:55;101503.03;;;1.09;38.62
71126;BME280;58785;55.566;38.058;2023-04-15T00:57:21;101520.41;;;1.13;38.87
71126;BME280;58785;55.566;38.058;2023-04-15T00:59:47;101516.34;;;1.04;38.79
71126;BME280;58785;55.566;38.058;2023-04-15T01:02:13;101513.75;;;1.03;38.96
71126;BME280;58785;55.566;38.058;2023-04-15T01:04:39;101512.97;;;1.01;38.95
71126;BME280;58785;55.566;38.058;2023-04-15T01:07:05;101530.50;;;1.00;38.66
71126;BME280;58785;55.566;38.058;2023-04-15T01:09:31;101517.44;;;0.97;38.45
71126;BME280;58785;55.566;38.058;2023-04-15T01:11:57;101525.50;;;0.93;39.04
71126;BME280;58785;55.566;38.058;2023-04-15T01:14:24;101534.91;;;0.98;39.14
71126;BME280;58785;55.566;38.058;2023-04-15T01:16:51;101525.50;;;0.93;39.25
71126;BME280;58785;55.566;38.058;2023-04-15T01:19:17;101530.75;;;0.93;39.02
71126;BME280;58785;55.566;38.058;2023-04-15T01:21:43;101543.06;;;0.91;39.03
71126;BME280;58785;55.566;38.058;2023-04-15T01:24:09;101535.38;;;0.84;38.88
71126;BME280;58785;55.566;38.058;2023-04-15T01:26:39;101537.22;;;0.82;39.26
71126;BME280;58785;55.566;38.058;2023-04-15T01:29:05;101542.53;;;0.79;38.93
71126;BME280;58785;55.566;38.058;2023-04-15T01:31:31;101541.75;;;0.77;39.27
71126;BME280;58785;55.566;38.058;2023-04-15T01:33:57;101538.41;;;0.72;39.01
71126;BME280;58785;55.566;38.058;2023-04-15T01:36:41;101552.34;;;0.74;39.37
71126;BME280;58785;55.566;38.058;2023-04-15T01:39:07;101551.50;;;0.74;39.45
71126;BME280;58785;55.566;38.058;2023-04-15T01:41:32;101558.63;;;0.70;39.18
71126;BME280;58785;55.566;38.058;2023-04-15T01:43:59;101555.16;;;0.68;39.17
71126;BME280;58785;55.566;38.058;2023-04-15T01:46:27;101562.13;;;0.69;39.58
71126;BME280;58785;55.566;38.058;2023-04-15T01:48:54;101564.00;;;0.66;39.46
71126;BME280;58785;55.566;38.058;2023-04-15T01:51:20;101569.31;;;0.64;39.20
71126;BME280;58785;55.566;38.058;2023-04-15T01:53:47;101560.00;;;0.54;39.78
71126;BME280;58785;55.566;38.058;2023-04-15T01:56:14;101553.88;;;0.53;39.79
71126;BME280;58785;55.566;38.058;2023-04-15T01:58:41;101568.69;;;0.56;39.86
71126;BME280;58785;55.566;38.058;2023-04-15T02:01:08;101566.22;;;0.51;39.82
71126;BME280;58785;55.566;38.058;2023-04-15T02:03:36;101580.88;;;0.57;39.82
71126;BME280;58785;55.566;38.058;2023-04-15T02:06:03;101576.53;;;0.56;40.05
71126;BME280;58785;55.566;38.058;2023-04-15T02:08:30;101562.84;;;0.46;40.18
71126;BME280;58785;55.566;38.058;2023-04-15T02:10:57;101576.72;;;0.51;40.05
71126;BME280;58785;55.566;38.058;2023-04-15T02:13:24;101595.78;;;0.56;39.95
71126;BME280;58785;55.566;38.058;2023-04-15T02:15:51;101592.28;;;0.56;39.90
71126;BME280;58785;55.566;38.058;2023-04-15T02:18:18;101583.72;;;0.51;39.77
71126;BME280;58785;55.566;38.058;2023-04-15T02:20:45;101591.50;;;0.54;39.84
71126;BME280;58785;55.566;38.058;2023-04-15T02:23:12;101594.22;;;0.51;40.21
71126;BME280;58785;55.566;38.058;2023-04-15T02:25:39;101600.28;;;0.53;40.42
71126;BME280;58785;55.566;38.058;2023-04-15T02:28:06;101603.81;;;0.52;40.02
71126;BME280;58785;55.566;38.058;2023-04-15T02:30:33;101603.69;;;0.55;39.95
71126;BME280;58785;55.566;38.058;2023-04-15T02:33:00;101605.53;;;0.53;39.55
71126;BME280;58785;55.566;38.058;2023-04-15T02:35:27;101619.28;;;0.61;40.11
71126;BME280;58785;55.566;38.058;2023-04-15T02:37:54;101621.00;;;0.62;40.28
71126;BME280;58785;55.566;38.058;2023-04-15T02:40:21;101617.56;;;0.58;40.20
71126;BME280;58785;55.566;38.058;2023-04-15T02:42:48;101613.91;;;0.64;40.05
71126;BME280;58785;55.566;38.058;2023-04-15T02:45:15;101618.25;;;0.65;40.29
71126;BME280;58785;55.566;38.058;2023-04-15T02:47:41;101633.84;;;0.71;40.06
71126;BME280;58785;55.566;38.058;2023-04-15T02:50:11;101625.09;;;0.71;40.09
71126;BME280;58785;55.566;38.058;2023-04-15T02:52:39;101640.63;;;0.77;40.05
71126;BME280;58785;55.566;38.058;2023-04-15T02:55:07;101634.63;;;0.73;39.90
71126;BME280;58785;55.566;38.058;2023-04-15T02:57:35;101631.91;;;0.76;40.05
71126;BME280;58785;55.566;38.058;2023-04-15T03:00:06;101645.72;;;0.83;40.08
71126;BME280;58785;55.566;38.058;2023-04-15T03:02:36;101649.94;;;0.87;39.80
71126;BME280;58785;55.566;38.058;2023-04-15T03:05:04;101658.63;;;0.91;39.62
71126;BME280;58785;55.566;38.058;2023-04-15T03:07:31;101651.78;;;0.85;39.83
71126;BME280;58785;55.566;38.058;2023-04-15T03:09:58;101660.28;;;0.93;39.90
71126;BME280;58785;55.566;38.058;2023-04-15T03:12:25;101654.00;;;0.97;39.56
71126;BME280;58785;55.566;38.058;2023-04-15T03:14:51;101654.47;;;1.10;39.47
71126;BME280;58785;55.566;38.058;2023-04-15T03:17:18;101661.13;;;1.20;39.56
71126;BME280;58785;55.566;38.058;2023-04-15T03:19:45;101666.09;;;1.29;39.40
71126;BME280;58785;55.566;38.058;2023-04-15T03:22:12;101671.16;;;1.35;39.43
71126;BME280;58785;55.566;38.058;2023-04-15T03:24:39;101659.63;;;1.39;39.08
71126;BME280;58785;55.566;38.058;2023-04-15T03:27:05;101661.03;;;1.50;38.98
71126;BME280;58785;55.566;38.058;2023-04-15T03:29:33;101679.69;;;1.68;39.05
71126;BME280;58785;55.566;38.058;2023-04-15T03:32:00;101674.22;;;1.75;39.01
71126;BME280;58785;55.566;38.058;2023-04-15T03:34:27;101675.25;;;1.70;39.11
71126;BME280;58785;55.566;38.058;2023-04-15T03:36:54;101685.53;;;1.77;39.19
71126;BME280;58785;55.566;38.058;2023-04-15T03:39:21;101681.84;;;1.82;38.65
71126;BME280;58785;55.566;38.058;2023-04-15T03:41:48;101681.75;;;1.85;38.61
71126;BME280;58785;55.566;38.058;2023-04-15T03:44:15;101687.88;;;1.86;38.83
71126;BME280;58785;55.566;38.058;2023-04-15T03:46:42;101682.91;;;1.77;38.93
71126;BME280;58785;55.566;38.058;2023-04-15T03:49:09;101693.88;;;1.89;38.69
71126;BME280;58785;55.566;38.058;2023-04-15T03:51:36;101697.03;;;1.99;38.68
71126;BME280;58785;55.566;38.058;2023-04-15T03:54:03;101700.91;;;2.14;38.49
71126;BME280;58785;55.566;38.058;2023-04-15T03:56:30;101705.72;;;2.26;38.16
71126;BME280;58785;55.566;38.058;2023-04-15T03:58:57;101711.59;;;2.34;37.96
71126;BME280;58785;55.566;38.058;2023-04-15T04:01:24;101706.72;;;2.47;37.74
71126;BME280;58785;55.566;38.058;2023-04-15T04:03:50;101707.19;;;2.58;37.55
71126;BME280;58785;55.566;38.058;2023-04-15T04:06:17;101715.38;;;2.74;37.89
71126;BME280;58785;55.566;38.058;2023-04-15T04:08:44;101711.78;;;2.98;37.77
71126;BME280;58785;55.566;38.058;2023-04-15T04:11:11;101713.53;;;3.21;37.10
71126;BME280;58785;55.566;38.058;2023-04-15T04:13:39;101716.66;;;3.31;36.96
71126;BME280;58785;55.566;38.058;2023-04-15T04:16:06;101707.97;;;3.49;36.59
71126;BME280;58785;55.566;38.058;2023-04-15T04:18:33;101700.00;;;3.51;36.72
71126;BME280;58785;55.566;38.058;2023-04-15T04:21:00;101714.72;;;3.56;36.01
71126;BME280;58785;55.566;38.058;2023-04-15T04:23:27;101714.28;;;3.67;36.51
71126;BME280;58785;55.566;38.058;2023-04-15T04:25:53;101692.31;;;3.66;36.25
71126;BME280;58785;55.566;38.058;2023-04-15T04:28:20;101706.84;;;3.77;35.79
71126;BME280;58785;55.566;38.058;2023-04-15T04:30:47;101716.88;;;3.89;36.15
71126;BME280;58785;55.566;38.058;2023-04-15T04:33:14;101695.69;;;3.90;35.94
71126;BME280;58785;55.566;38.058;2023-04-15T04:35:41;101708.78;;;4.14;35.39
71126;BME280;58785;55.566;38.058;2023-04-15T04:38:08;101706.00;;;4.17;35.30
71126;BME280;58785;55.566;38.058;2023-04-15T04:40:35;101718.34;;;4.16;35.63
71126;BME280;58785;55.566;38.058;2023-04-15T04:43:02;101706.31;;;4.09;34.63
71126;BME280;58785;55.566;38.058;2023-04-15T04:45:29;101711.28;;;4.17;35.22
71126;BME280;58785;55.566;38.058;2023-04-15T04:47:56;101702.81;;;4.29;35.30
71126;BME280;58785;55.566;38.058;2023-04-15T04:50:23;101725.16;;;4.41;34.55
71126;BME280;58785;55.566;38.058;2023-04-15T04:52:49;101723.41;;;4.41;34.67
71126;BME280;58785;55.566;38.058;2023-04-15T04:55:17;101721.22;;;4.30;34.74
71126;BME280;58785;55.566;38.058;2023-04-15T04:57:45;101722.34;;;4.25;34.74
71126;BME280;58785;55.566;38.058;2023-04-15T05:00:12;101713.56;;;4.24;34.55
71126;BME280;58785;55.566;38.058;2023-04-15T05:02:40;101719.78;;;4.23;34.76
71126;BME280;58785;55.566;38.058;2023-04-15T05:05:09;101718.31;;;4.37;34.52
71126;BME280;58785;55.566;38.058;2023-04-15T05:07:37;101716.25;;;4.43;34.65
71126;BME280;58785;55.566;38.058;2023-04-15T05:10:05;101725.25;;;4.58;34.20
71126;BME280;58785;55.566;38.058;2023-04-15T05:12:32;101722.44;;;4.63;34.60
71126;BME280;58785;55.566;38.058;2023-04-15T05:14:59;101725.34;;;4.56;34.46
71126;BME280;58785;55.566;38.058;2023-04-15T05:17:26;101722.91;;;4.52;34.57
71126;BME280;58785;55.566;38.058;2023-04-15T05:19:53;101718.94;;;4.62;34.49
71126;BME280;58785;55.566;38.058;2023-04-15T05:22:20;101723.69;;;4.54;34.20
71126;BME280;58785;55.566;38.058;2023-04-15T05:24:47;101733.59;;;4.49;34.65
71126;BME280;58785;55.566;38.058;2023-04-15T05:27:14;101728.84;;;4.57;34.51
71126;BME280;58785;55.566;38.058;2023-04-15T05:29:41;101726.97;;;4.59;34.30
71126;BME280;58785;55.566;38.058;2023-04-15T05:32:08;101728.34;;;4.68;34.12
71126;BME280;58785;55.566;38.058;2023-04-15T05:34:35;101747.34;;;4.57;34.11
71126;BME280;58785;55.566;38.058;2023-04-15T05:37:02;101727.47;;;4.48;33.88
71126;BME280;58785;55.566;38.058;2023-04-15T05:39:28;101741.56;;;4.68;34.28
71126;BME280;58785;55.566;38.058;2023-04-15T05:41:57;101739.78;;;4.87;34.29
71126;BME280;58785;55.566;38.058;2023-04-15T05:44:23;101747.97;;;5.01;34.02
71126;BME280;58785;55.566;38.058;2023-04-15T05:46:50;101745.09;;;5.06;34.00
71126;BME280;58785;55.566;38.058;2023-04-15T05:49:17;101756.00;;;5.17;33.88
71126;BME280;58785;55.566;38.058;2023-04-15T05:51:46;101756.72;;;5.20;33.57
71126;BME280;58785;55.566;38.058;2023-04-15T05:54:13;101745.66;;;5.12;33.89
71126;BME280;58785;55.566;38.058;2023-04-15T05:56:40;101757.22;;;5.10;33.56
71126;BME280;58785;55.566;38.058;2023-04-15T05:59:07;101760.88;;;5.07;33.59
71126;BME280;58785;55.566;38.058;2023-04-15T06:01:34;101755.66;;;5.06;33.37
71126;BME280;58785;55.566;38.058;2023-04-15T06:04:01;101753.25;;;5.01;33.60
71126;BME280;58785;55.566;38.058;2023-04-15T06:06:28;101758.88;;;5.12;33.07
71126;BME280;58785;55.566;38.058;2023-04-15T06:08:55;101757.03;;;5.14;33.17
71126;BME280;58785;55.566;38.058;2023-04-15T06:11:23;101760.78;;;5.28;33.41
71126;BME280;58785;55.566;38.058;2023-04-15T06:13:49;101752.06;;;5.26;33.26
71126;BME280;58785;55.566;38.058;2023-04-15T06:16:16;101763.19;;;5.51;33.40
71126;BME280;58785;55.566;38.058;2023-04-15T06:18:43;101757.94;;;5.68;33.02
71126;BME280;58785;55.566;38.058;2023-04-15T06:21:11;101770.13;;;5.71;33.28
71126;BME280;58785;55.566;38.058;2023-04-15T06:23:38;101763.47;;;5.64;33.11
71126;BME280;58785;55.566;38.058;2023-04-15T06:26:06;101767.31;;;5.57;32.61
71126;BME280;58785;55.566;38.058;2023-04-15T06:28:33;101767.25;;;5.58;33.23
71126;BME280;58785;55.566;38.058;2023-04-15T06:31:00;101770.81;;;5.57;32.73
71126;BME280;58785;55.566;38.058;2023-04-15T06:33:28;101762.28;;;5.69;32.52
71126;BME280;58785;55.566;38.058;2023-04-15T06:35:55;101765.88;;;5.68;32.13
71126;BME280;58785;55.566;38.058;2023-04-15T06:38:22;101774.50;;;5.55;32.61
71126;BME280;58785;55.566;38.058;2023-04-15T06:40:48;101775.50;;;5.52;32.67
71126;BME280;58785;55.566;38.058;2023-04-15T06:43:17;101768.97;;;5.59;32.60
71126;BME280;58785;55.566;38.058;2023-04-15T06:45:44;101784.25;;;5.71;32.23
71126;BME280;58785;55.566;38.058;2023-04-15T06:48:11;101775.16;;;5.77;32.00
71126;BME280;58785;55.566;38.058;2023-04-15T06:50:38;101787.66;;;5.92;32.40
71126;BME280;58785;55.566;38.058;2023-04-15T06:53:06;101775.81;;;5.99;32.04
71126;BME280;58785;55.566;38.058;2023-04-15T06:55:33;101778.31;;;6.20;32.04
71126;BME280;58785;55.566;38.058;2023-04-15T06:57:59;101777.06;;;6.27;31.71
71126;BME280;58785;55.566;38.058;2023-04-15T07:00:26;101782.66;;;6.38;31.70
71126;BME280;58785;55.566;38.058;2023-04-15T07:02:54;101782.59;;;6.40;31.60
71126;BME280;58785;55.566;38.058;2023-04-15T07:05:21;101776.13;;;6.45;31.37
71126;BME280;58785;55.566;38.058;2023-04-15T07:07:48;101777.28;;;6.57;31.41
71126;BME280;58785;55.566;38.058;2023-04-15T07:10:15;101779.63;;;6.79;31.29
71126;BME280;58785;55.566;38.058;2023-04-15T07:12:42;101777.63;;;7.00;31.64
71126;BME280;58785;55.566;38.058;2023-04-15T07:15:09;101776.88;;;7.13;31.27
71126;BME280;58785;55.566;38.058;2023-04-15T07:17:36;101771.91;;;7.07;30.25
71126;BME280;58785;55.566;38.058;2023-04-15T07:20:04;101774.38;;;7.10;30.46
71126;BME280;58785;55.566;38.058;2023-04-15T07:22:31;101772.31;;;7.31;30.75
71126;BME280;58785;55.566;38.058;2023-04-15T07:24:58;101774.66;;;7.37;30.34
71126;BME280;58785;55.566;38.058;2023-04-15T07:27:25;101758.13;;;7.48;30.76
71126;BME280;58785;55.566;38.058;2023-04-15T07:29:52;101764.78;;;7.55;30.54
71126;BME280;58785;55.566;38.058;2023-04-15T07:32:19;101773.19;;;7.63;30.38
71126;BME280;58785;55.566;38.058;2023-04-15T07:34:46;101765.47;;;7.59;29.96
71126;BME280;58785;55.566;38.058;2023-04-15T07:37:13;101757.66;;;7.71;29.63
71126;BME280;58785;55.566;38.058;2023-04-15T07:39:40;101757.63;;;7.87;29.78
71126;BME280;58785;55.566;38.058;2023-04-15T07:42:08;101770.72;;;7.90;28.85
71126;BME280;58785;55.566;38.058;2023-04-15T07:44:35;101768.75;;;7.94;28.84
71126;BME280;58785;55.566;38.058;2023-04-15T07:47:02;101764.41;;;8.07;29.63
71126;BME280;58785;55.566;38.058;2023-04-15T07:49:29;101759.78;;;8.11;29.26
71126;BME280;58785;55.566;38.058;2023-04-15T07:51:56;101759.00;;;8.08;28.62
71126;BME280;58785;55.566;38.058;2023-04-15T07:54:25;101762.06;;;8.17;29.06
71126;BME280;58785;55.566;38.058;2023-04-15T07:56:52;101764.28;;;8.24;29.43
71126;BME280;58785;55.566;38.058;2023-04-15T07:59:19;101747.63;;;8.06;28.74
71126;BME280;58785;55.566;38.058;2023-04-15T08:01:47;101750.47;;;8.03;29.12
71126;BME280;58785;55.566;38.058;2023-04-15T08:04:14;101755.31;;;8.11;28.56
71126;BME280;58785;55.566;38.058;2023-04-15T08:06:41;101756.75;;;8.17;28.48
71126;BME280;58785;55.566;38.058;2023-04-15T08:09:08;101754.22;;;8.29;29.13
71126;BME280;58785;55.566;38.058;2023-04-15T08:11:35;101757.69;;;8.46;29.37
71126;BME280;58785;55.566;38.058;2023-04-15T08:14:03;101754.28;;;8.58;29.08
71126;BME280;58785;55.566;38.058;2023-04-15T08:16:29;101749.16;;;8.55;28.80
71126;BME280;58785;55.566;38.058;2023-04-15T08:18:56;101753.03;;;8.49;28.60
71126;BME280;58785;55.566;38.058;2023-04-15T08:21:23;101738.97;;;8.33;28.13
71126;BME280;58785;55.566;38.058;2023-04-15T08:23:51;101759.22;;;8.35;28.65
71126;BME280;58785;55.566;38.058;2023-04-15T08:26:19;101749.44;;;8.36;28.72
71126;BME280;58785;55.566;38.058;2023-04-15T08:28:47;101755.44;;;8.54;29.08
71126;BME280;58785;55.566;38.058;2023-04-15T08:31:15;101758.75;;;8.57;28.11
71126;BME280;58785;55.566;38.058;2023-04-15T08:33:42;101752.56;;;8.57;28.45
71126;BME280;58785;55.566;38.058;2023-04-15T08:36:09;101745.53;;;8.70;28.60
71126;BME280;58785;55.566;38.058;2023-04-15T08:38:36;101743.19;;;8.66;28.38
71126;BME280;58785;55.566;38.058;2023-04-15T08:41:20;101760.56;;;8.57;28.05
71126;BME280;58785;55.566;38.058;2023-04-15T08:43:52;101748.56;;;8.50;28.35
71126;BME280;58785;55.566;38.058;2023-04-15T08:46:20;101755.81;;;8.62;28.40
71126;BME280;58785;55.566;38.058;2023-04-15T08:48:48;101742.25;;;8.52;27.50
71126;BME280;58785;55.566;38.058;2023-04-15T08:51:16;101742.31;;;8.51;27.65
71126;BME280;58785;55.566;38.058;2023-04-15T08:53:46;101741.56;;;8.49;27.71
71126;BME280;58785;55.566;38.058;2023-04-15T08:56:14;101755.91;;;8.60;27.76
71126;BME280;58785;55.566;38.058;2023-04-15T08:58:43;101744.41;;;8.60;27.62
71126;BME280;58785;55.566;38.058;2023-04-15T09:01:11;101740.81;;;8.75;28.10
71126;BME280;58785;55.566;38.058;2023-04-15T09:03:38;101735.28;;;8.92;27.91
71126;BME280;58785;55.566;38.058;2023-04-15T09:06:06;101742.00;;;9.12;28.11
71126;BME280;58785;55.566;38.058;2023-04-15T09:08:33;101733.59;;;9.33;27.96
71126;BME280;58785;55.566;38.058;2023-04-15T09:11:02;101739.34;;;9.39;27.52
71126;BME280;58785;55.566;38.058;2023-04-15T09:13:30;101734.88;;;9.40;27.34
71126;BME280;58785;55.566;38.058;2023-04-15T09:15:57;101716.78;;;9.32;27.11
71126;BME280;58785;55.566;38.058;2023-04-15T09:18:32;101737.19;;;9.32;26.97
71126;BME280;58785;55.566;38.058;2023-04-15T09:21:13;101718.88;;;9.27;27.47
71126;BME280;58785;55.566;38.058;2023-04-15T09:23:56;101729.97;;;9.34;26.93
71126;BME280;58785;55.566;38.058;2023-04-15T09:26:35;101714.97;;;9.18;27.06
71126;BME280;58785;55.566;38.058;2023-04-15T09:29:09;101725.16;;;9.26;27.32
71126;BME280;58785;55.566;38.058;2023-04-15T09:31:39;101731.97;;;9.30;27.49
71126;BME280;58785;55.566;38.058;2023-04-15T09:34:07;101730.94;;;9.33;27.19
71126;BME280;58785;55.566;38.058;2023-04-15T09:39:13;101712.19;;;9.34;27.69
71126;BME280;58785;55.566;38.058;2023-04-15T09:41:40;101721.69;;;9.38;27.32
71126;BME280;58785;55.566;38.058;2023-04-15T09:44:24;101722.28;;;9.29;26.90
71126;BME280;58785;55.566;38.058;2023-04-15T09:46:51;101719.25;;;9.21;26.91
71126;BME280;58785;55.566;38.058;2023-04-15T09:49:18;101729.25;;;9.17;26.95
71126;BME280;58785;55.566;38.058;2023-04-15T09:51:46;101717.75;;;9.17;26.96
71126;BME280;58785;55.566;38.058;2023-04-15T09:54:18;101718.22;;;9.24;26.89
71126;BME280;58785;55.566;38.058;2023-04-15T09:56:46;101711.63;;;9.29;27.18
71126;BME280;58785;55.566;38.058;2023-04-15T09:59:14;101720.72;;;9.39;27.03
71126;BME280;58785;55.566;38.058;2023-04-15T10:01:41;101717.94;;;9.41;27.06
71126;BME280;58785;55.566;38.058;2023-04-15T10:04:08;101716.81;;;9.45;26.84
71126;BME280;58785;55.566;38.058;2023-04-15T10:06:36;101714.16;;;9.45;27.09
71126;BME280;58785;55.566;38.058;2023-04-15T10:09:04;101708.63;;;9.48;26.91
71126;BME280;58785;55.566;38.058;2023-04-15T10:11:32;101719.91;;;9.51;26.66
71126;BME280;58785;55.566;38.058;2023-04-15T10:14:00;101718.72;;;9.43;27.02
71126;BME280;58785;55.566;38.058;2023-04-15T10:16:30;101724.91;;;9.43;26.76
71126;BME280;58785;55.566;38.058;2023-04-15T10:19:00;101702.75;;;9.43;26.45
71126;BME280;58785;55.566;38.058;2023-04-15T10:21:29;101718.31;;;9.49;26.55
71126;BME280;58785;55.566;38.058;2023-04-15T10:23:57;101714.91;;;9.47;26.43
71126;BME280;58785;55.566;38.058;2023-04-15T10:26:23;101716.91;;;9.43;26.61
71126;BME280;58785;55.566;38.058;2023-04-15T10:28:50;101705.00;;;9.49;26.50
71126;BME280;58785;55.566;38.058;2023-04-15T10:31:19;101703.91;;;9.78;26.53
71126;BME280;58785;55.566;38.058;2023-04-15T10:33:46;101707.38;;;10.06;26.42
71126;BME280;58785;55.566;38.058;2023-04-15T10:36:14;101707.25;;;10.20;26.62
71126;BME280;58785;55.566;38.058;2023-04-15T10:38:43;101712.72;;;10.19;26.44
71126;BME280;58785;55.566;38.058;2023-04-15T10:41:24;101705.91;;;10.15;26.37
71126;BME280;58785;55.566;38.058;2023-04-15T10:43:59;101711.75;;;10.20;25.62
71126;BME280;58785;55.566;38.058;2023-04-15T10:46:41;101700.97;;;10.21;26.15
71126;BME280;58785;55.566;38.058;2023-04-15T10:49:14;101700.91;;;10.35;26.27
71126;BME280;58785;55.566;38.058;2023-04-15T10:51:48;101710.50;;;10.51;26.41
71126;BME280;58785;55.566;38.058;2023-04-15T10:54:30;101706.97;;;10.50;25.40
71126;BME280;58785;55.566;38.058;2023-04-15T10:59:38;101702.41;;;10.52;25.67
71126;BME280;58785;55.566;38.058;2023-04-15T11:02:16;101710.19;;;10.55;25.82
71126;BME280;58785;55.566;38.058;2023-04-15T11:04:58;101704.66;;;10.46;25.06
71126;BME280;58785;55.566;38.058;2023-04-15T11:07:46;101709.22;;;10.56;25.61
71126;BME280;58785;55.566;38.058;2023-04-15T11:12:44;101682.41;;;10.71;25.47
71126;BME280;58785;55.566;38.058;2023-04-15T11:15:33;101702.69;;;10.86;25.37
71126;BME280;58785;55.566;38.058;2023-04-15T11:18:16;101684.97;;;10.85;25.27
71126;BME280;58785;55.566;38.058;2023-04-15T11:20:49;101694.22;;;10.92;25.10
71126;BME280;58785;55.566;38.058;2023-04-15T11:23:18;101684.50;;;10.91;25.71
71126;BME280;58785;55.566;38.058;2023-04-15T11:25:45;101689.81;;;11.04;25.95
71126;BME280;58785;55.566;38.058;2023-04-15T11:28:12;101688.38;;;11.11;25.79
71126;BME280;58785;55.566;38.058;2023-04-15T11:30:39;101681.03;;;11.14;25.91
71126;BME280;58785;55.566;38.058;2023-04-15T11:33:09;101690.56;;;11.30;25.63
71126;BME280;58785;55.566;38.058;2023-04-15T11:35:40;101686.59;;;11.35;25.79
71126;BME280;58785;55.566;38.058;2023-04-15T11:38:11;101683.13;;;11.46;26.22
71126;BME280;58785;55.566;38.058;2023-04-15T11:40:39;101686.47;;;11.37;25.94
71126;BME280;58785;55.566;38.058;2023-04-15T11:45:52;101671.38;;;11.25;25.17
71126;BME280;58785;55.566;38.058;2023-04-15T11:48:22;101674.59;;;11.17;25.92
71126;BME280;58785;55.566;38.058;2023-04-15T11:50:57;101671.41;;;11.12;25.70
71126;BME280;58785;55.566;38.058;2023-04-15T11:53:25;101672.91;;;11.16;25.48
71126;BME280;58785;55.566;38.058;2023-04-15T11:56:00;101661.06;;;11.07;25.36
71126;BME280;58785;55.566;38.058;2023-04-15T11:58:28;101667.38;;;11.06;25.57
71126;BME280;58785;55.566;38.058;2023-04-15T12:00:58;101660.84;;;11.10;26.14
71126;BME280;58785;55.566;38.058;2023-04-15T12:03:29;101661.38;;;11.15;25.99
71126;BME280;58785;55.566;38.058;2023-04-15T12:09:16;101665.50;;;11.19;25.37
71126;BME280;58785;55.566;38.058;2023-04-15T12:11:47;101664.16;;;11.14;25.82
71126;BME280;58785;55.566;38.058;2023-04-15T12:14:26;101663.06;;;11.16;26.02
71126;BME280;58785;55.566;38.058;2023-04-15T12:17:01;101647.38;;;11.12;25.83
71126;BME280;58785;55.566;38.058;2023-04-15T12:19:35;101659.44;;;11.17;26.44
71126;BME280;58785;55.566;38.058;2023-04-15T12:22:02;101650.88;;;11.25;25.60
71126;BME280;58785;55.566;38.058;2023-04-15T12:24:32;101654.16;;;11.29;25.88
71126;BME280;58785;55.566;38.058;2023-04-15T12:27:06;101656.41;;;11.22;26.31
71126;BME280;58785;55.566;38.058;2023-04-15T12:29:34;101658.69;;;11.15;25.99
71126;BME280;58785;55.566;38.058;2023-04-15T12:34:41;101661.75;;;10.98;25.71
71126;BME280;58785;55.566;38.058;2023-04-15T12:37:09;101650.75;;;11.03;25.66
71126;BME280;58785;55.566;38.058;2023-04-15T12:39:38;101653.41;;;11.03;25.84
71126;BME280;58785;55.566;38.058;2023-04-15T12:42:05;101645.63;;;11.00;25.68
71126;BME280;58785;55.566;38.058;2023-04-15T12:44:31;101649.00;;;11.02;25.91
71126;BME280;58785;55.566;38.058;2023-04-15T12:46:58;101660.91;;;10.98;26.28
71126;BME280;58785;55.566;38.058;2023-04-15T12:49:27;101652.88;;;10.98;26.58
71126;BME280;58785;55.566;38.058;2023-04-15T12:51:55;101642.81;;;11.01;26.34
71126;BME280;58785;55.566;38.058;2023-04-15T12:54:21;101638.25;;;11.03;26.42
71126;BME280;58785;55.566;38.058;2023-04-15T12:56:49;101635.59;;;11.03;26.22
71126;BME280;58785;55.566;38.058;2023-04-15T12:59:15;101642.38;;;11.07;26.55
71126;BME280;58785;55.566;38.058;2023-04-15T13:01:46;101644.50;;;11.15;25.99
71126;BME280;58785;55.566;38.058;2023-04-15T13:04:13;101643.19;;;11.20;25.92
71126;BME280;58785;55.566;38.058;2023-04-15T13:06:40;101634.56;;;11.17;26.39
71126;BME280;58785;55.566;38.058;2023-04-15T13:09:06;101633.94;;;11.13;26.75